sensor_id;sensor_type;location;lat;lon;timestamp;temperature;humidity
19152;DHT22;9708;53.114;9.388;2022-10-28T00:01:17;13.60;99.90
19152;DHT22;9708;53.114;9.388;2022-10-28T00:03:46;13.60;99.90
19152;DHT22;9708;53.114;9.388;2022-10-28T00:06:15;13.60;99.90
19152;DHT22;9708;53.114;9.388;2022-10-28T00:08:42;13.50;99.90
19152;DHT22;9708;53.114;9.388;2022-10-28T00:11:13;13.40;99.90
19152;DHT22;9708;53.114;9.388;2022-10-28T00:13:40;13.40;99.90
19152;DHT22;9708;53.114;9.388;2022-10-28T00:16:09;13.40;99.90
19152;DHT22;9708;53.114;9.388;2022-10-28T00:18:36;13.30;99.90
19152;DHT22;9708;53.114;9.388;2022-10-28T00:21:07;13.30;99.90
19152;DHT22;9708;53.114;9.388;2022-10-28T00:23:34;13.30;99.90
19152;DHT22;9708;53.114;9.388;2022-10-28T00:26:09;13.30;99.90
19152;DHT22;9708;53.114;9.388;2022-10-28T00:28:41;13.30;99.90
19152;DHT22;9708;53.114;9.388;2022-10-28T00:31:09;13.30;99.90
19152;DHT22;9708;53.114;9.388;2022-10-28T00:33:37;13.30;99.90
19152;DHT22;9708;53.114;9.388;2022-10-28T00:36:11;13.30;99.90
19152;DHT22;9708;53.114;9.388;2022-10-28T00:38:39;13.30;99.90
19152;DHT22;9708;53.114;9.388;2022-10-28T00:41:08;13.30;99.90
19152;DHT22;9708;53.114;9.388;2022-10-28T00:43:38;13.40;99.90
19152;DHT22;9708;53.114;9.388;2022-10-28T00:46:21;13.50;99.90
19152;DHT22;9708;53.114;9.388;2022-10-28T00:48:54;13.50;99.90
19152;DHT22;9708;53.114;9.388;2022-10-28T00:51:23;13.40;99.90
19152;DHT22;9708;53.114;9.388;2022-10-28T00:53:51;13.40;99.90
19152;DHT22;9708;53.114;9.388;2022-10-28T00:56:19;13.30;99.90
19152;DHT22;9708;53.114;9.388;2022-10-28T00:58:47;13.30;99.90
19152;DHT22;9708;53.114;9.388;2022-10-28T01:01:16;13.30;99.90
19152;DHT22;9708;53.114;9.388;2022-10-28T01:03:43;13.20;99.90
19152;DHT22;9708;53.114;9.388;2022-10-28T01:06:09;13.30;99.90
19152;DHT22;9708;53.114;9.388;2022-10-28T01:08:36;13.50;99.90
19152;DHT22;9708;53.114;9.388;2022-10-28T01:11:31;13.60;99.90
19152;DHT22;9708;53.114;9.388;2022-10-28T01:14:28;13.90;99.90
19152;DHT22;9708;53.114;9.388;2022-10-28T01:17:12;14.00;99.90
19152;DHT22;9708;53.114;9.388;2022-10-28T01:22:54;14.50;99.90
19152;DHT22;9708;53.114;9.388;2022-10-28T01:25:47;14.60;99.90
19152;DHT22;9708;53.114;9.388;2022-10-28T01:28:36;14.60;99.90
19152;DHT22;9708;53.114;9.388;2022-10-28T01:31:16;14.60;99.90
19152;DHT22;9708;53.114;9.388;2022-10-28T01:33:50;14.60;99.90
19152;DHT22;9708;53.114;9.388;2022-10-28T01:36:25;14.30;99.90
19152;DHT22;9708;53.114;9.388;2022-10-28T01:38:56;14.10;99.90
19152;DHT22;9708;53.114;9.388;2022-10-28T01:41:32;13.90;99.90
19152;DHT22;9708;53.114;9.388;2022-10-28T01:44:04;13.70;99.90
19152;DHT22;9708;53.114;9.388;2022-10-28T01:46:38;13.70;99.90
19152;DHT22;9708;53.114;9.388;2022-10-28T01:49:10;13.60;99.90
19152;DHT22;9708;53.114;9.388;2022-10-28T01:51:42;13.50;99.90
19152;DHT22;9708;53.114;9.388;2022-10-28T01:54:12;13.40;99.90
19152;DHT22;9708;53.114;9.388;2022-10-28T01:56:42;13.30;99.90
19152;DHT22;9708;53.114;9.388;2022-10-28T01:59:12;13.40;99.90
19152;DHT22;9708;53.114;9.388;2022-10-28T02:01:41;13.40;99.90
19152;DHT22;9708;53.114;9.388;2022-10-28T02:04:08;13.20;99.90
19152;DHT22;9708;53.114;9.388;2022-10-28T02:06:36;13.10;99.90
19152;DHT22;9708;53.114;9.388;2022-10-28T02:09:16;13.10;99.90
19152;DHT22;9708;53.114;9.388;2022-10-28T02:12:08;13.10;99.90
19152;DHT22;9708;53.114;9.388;2022-10-28T02:14:57;13.10;99.90
19152;DHT22;9708;53.114;9.388;2022-10-28T02:17:37;13.10;99.90
19152;DHT22;9708;53.114;9.388;2022-10-28T02:20:10;13.10;99.90
19152;DHT22;9708;53.114;9.388;2022-10-28T02:22:44;13.00;99.90
19152;DHT22;9708;53.114;9.388;2022-10-28T02:25:16;13.00;99.90
19152;DHT22;9708;53.114;9.388;2022-10-28T02:27:46;12.90;99.90
19152;DHT22;9708;53.114;9.388;2022-10-28T02:30:20;12.80;99.90
19152;DHT22;9708;53.114;9.388;2022-10-28T02:32:51;12.80;99.90
19152;DHT22;9708;53.114;9.388;2022-10-28T02:35:23;12.70;99.90
19152;DHT22;9708;53.114;9.388;2022-10-28T02:37:51;12.70;99.90
19152;DHT22;9708;53.114;9.388;2022-10-28T02:40:23;12.70;99.90
19152;DHT22;9708;53.114;9.388;2022-10-28T02:42:54;12.70;99.90
19152;DHT22;9708;53.114;9.388;2022-10-28T02:45:25;12.60;99.90
19152;DHT22;9708;53.114;9.388;2022-10-28T02:47:57;12.60;99.90
19152;DHT22;9708;53.114;9.388;2022-10-28T02:50:30;12.60;99.90
19152;DHT22;9708;53.114;9.388;2022-10-28T02:53:01;12.40;99.90
19152;DHT22;9708;53.114;9.388;2022-10-28T02:55:33;12.40;99.90
19152;DHT22;9708;53.114;9.388;2022-10-28T02:58:00;12.40;99.90
19152;DHT22;9708;53.114;9.388;2022-10-28T03:00:27;12.40;99.90
19152;DHT22;9708;53.114;9.388;2022-10-28T03:02:55;12.30;99.90
19152;DHT22;9708;53.114;9.388;2022-10-28T03:05:22;12.40;99.90
19152;DHT22;9708;53.114;9.388;2022-10-28T03:07:49;12.40;99.90
19152;DHT22;9708;53.114;9.388;2022-10-28T03:10:15;12.30;99.90
19152;DHT22;9708;53.114;9.388;2022-10-28T03:12:42;12.30;99.90
19152;DHT22;9708;53.114;9.388;2022-10-28T03:15:09;12.30;99.90
19152;DHT22;9708;53.114;9.388;2022-10-28T03:17:36;12.40;99.90
19152;DHT22;9708;53.114;9.388;2022-10-28T03:20:05;12.30;99.90
19152;DHT22;9708;53.114;9.388;2022-10-28T03:22:32;12.30;99.90
19152;DHT22;9708;53.114;9.388;2022-10-28T03:24:59;12.30;99.90
19152;DHT22;9708;53.114;9.388;2022-10-28T03:27:26;12.40;99.90
19152;DHT22;9708;53.114;9.388;2022-10-28T03:29:52;12.50;99.90
19152;DHT22;9708;53.114;9.388;2022-10-28T03:32:19;12.50;99.90
19152;DHT22;9708;53.114;9.388;2022-10-28T03:34:46;12.50;99.90
19152;DHT22;9708;53.114;9.388;2022-10-28T03:37:14;12.60;99.90
19152;DHT22;9708;53.114;9.388;2022-10-28T03:39:40;12.60;99.90
19152;DHT22;9708;53.114;9.388;2022-10-28T03:42:07;12.70;99.90
19152;DHT22;9708;53.114;9.388;2022-10-28T03:44:34;12.70;99.90
19152;DHT22;9708;53.114;9.388;2022-10-28T03:47:01;12.80;99.90
19152;DHT22;9708;53.114;9.388;2022-10-28T03:49:27;12.80;99.90
19152;DHT22;9708;53.114;9.388;2022-10-28T03:51:54;12.80;99.90
19152;DHT22;9708;53.114;9.388;2022-10-28T03:54:22;13.10;99.90
19152;DHT22;9708;53.114;9.388;2022-10-28T03:56:49;13.30;99.90
19152;DHT22;9708;53.114;9.388;2022-10-28T03:59:16;13.20;99.90
19152;DHT22;9708;53.114;9.388;2022-10-28T04:01:42;13.30;99.90
19152;DHT22;9708;53.114;9.388;2022-10-28T04:04:09;13.10;99.90
19152;DHT22;9708;53.114;9.388;2022-10-28T04:06:36;13.00;99.90
19152;DHT22;9708;53.114;9.388;2022-10-28T04:09:03;13.00;99.90
19152;DHT22;9708;53.114;9.388;2022-10-28T04:11:31;13.20;99.90
19152;DHT22;9708;53.114;9.388;2022-10-28T04:13:57;13.50;99.90
19152;DHT22;9708;53.114;9.388;2022-10-28T04:16:24;13.70;99.90
19152;DHT22;9708;53.114;9.388;2022-10-28T04:18:51;13.60;99.90
19152;DHT22;9708;53.114;9.388;2022-10-28T04:21:18;13.70;99.90
19152;DHT22;9708;53.114;9.388;2022-10-28T04:23:44;13.50;99.90
19152;DHT22;9708;53.114;9.388;2022-10-28T04:26:11;13.40;99.90
19152;DHT22;9708;53.114;9.388;2022-10-28T04:28:40;13.30;99.90
19152;DHT22;9708;53.114;9.388;2022-10-28T04:31:06;13.30;99.90
19152;DHT22;9708;53.114;9.388;2022-10-28T04:33:34;13.20;99.90
19152;DHT22;9708;53.114;9.388;2022-10-28T04:36:01;13.10;99.90
19152;DHT22;9708;53.114;9.388;2022-10-28T04:38:28;13.00;99.90
19152;DHT22;9708;53.114;9.388;2022-10-28T04:40:54;13.00;99.90
19152;DHT22;9708;53.114;9.388;2022-10-28T04:43:21;13.00;99.90
19152;DHT22;9708;53.114;9.388;2022-10-28T04:45:49;13.00;99.90
19152;DHT22;9708;53.114;9.388;2022-10-28T04:48:16;13.00;99.90
19152;DHT22;9708;53.114;9.388;2022-10-28T04:50:44;12.90;99.90
19152;DHT22;9708;53.114;9.388;2022-10-28T04:53:11;12.90;99.90
19152;DHT22;9708;53.114;9.388;2022-10-28T04:55:38;12.80;99.90
19152;DHT22;9708;53.114;9.388;2022-10-28T04:58:05;12.70;99.90
19152;DHT22;9708;53.114;9.388;2022-10-28T05:00:32;12.70;99.90
19152;DHT22;9708;53.114;9.388;2022-10-28T05:03:01;12.60;99.90
19152;DHT22;9708;53.114;9.388;2022-10-28T05:05:28;12.40;99.90
19152;DHT22;9708;53.114;9.388;2022-10-28T05:07:55;12.40;99.90
19152;DHT22;9708;53.114;9.388;2022-10-28T05:10:22;12.30;99.90
19152;DHT22;9708;53.114;9.388;2022-10-28T05:12:48;12.40;99.90
19152;DHT22;9708;53.114;9.388;2022-10-28T05:15:16;12.30;99.90
19152;DHT22;9708;53.114;9.388;2022-10-28T05:17:43;12.30;99.90
19152;DHT22;9708;53.114;9.388;2022-10-28T05:20:12;12.20;99.90
19152;DHT22;9708;53.114;9.388;2022-10-28T05:22:45;12.20;99.90
19152;DHT22;9708;53.114;9.388;2022-10-28T05:25:12;12.10;99.90
19152;DHT22;9708;53.114;9.388;2022-10-28T05:27:39;12.10;99.90
19152;DHT22;9708;53.114;9.388;2022-10-28T05:30:07;12.10;99.90
19152;DHT22;9708;53.114;9.388;2022-10-28T05:32:34;12.00;99.90
19152;DHT22;9708;53.114;9.388;2022-10-28T05:35:01;12.00;99.90
19152;DHT22;9708;53.114;9.388;2022-10-28T05:37:29;11.90;99.90
19152;DHT22;9708;53.114;9.388;2022-10-28T05:39:55;11.90;99.90
19152;DHT22;9708;53.114;9.388;2022-10-28T05:42:22;11.90;99.90
19152;DHT22;9708;53.114;9.388;2022-10-28T05:44:49;11.80;99.90
19152;DHT22;9708;53.114;9.388;2022-10-28T05:47:16;11.70;99.90
19152;DHT22;9708;53.114;9.388;2022-10-28T05:49:43;11.70;99.90
19152;DHT22;9708;53.114;9.388;2022-10-28T05:52:10;11.60;99.90
19152;DHT22;9708;53.114;9.388;2022-10-28T05:54:38;11.60;99.90
19152;DHT22;9708;53.114;9.388;2022-10-28T05:57:04;11.60;99.90
19152;DHT22;9708;53.114;9.388;2022-10-28T05:59:31;11.60;99.90
19152;DHT22;9708;53.114;9.388;2022-10-28T06:01:58;11.50;99.90
19152;DHT22;9708;53.114;9.388;2022-10-28T06:04:24;11.50;99.90
19152;DHT22;9708;53.114;9.388;2022-10-28T06:06:53;11.50;99.90
19152;DHT22;9708;53.114;9.388;2022-10-28T06:09:20;11.50;99.90
19152;DHT22;9708;53.114;9.388;2022-10-28T06:11:48;11.60;99.90
19152;DHT22;9708;53.114;9.388;2022-10-28T06:14:15;11.50;99.90
19152;DHT22;9708;53.114;9.388;2022-10-28T06:16:42;11.50;99.90
19152;DHT22;9708;53.114;9.388;2022-10-28T06:19:08;11.50;99.90
19152;DHT22;9708;53.114;9.388;2022-10-28T06:21:35;11.40;99.90
19152;DHT22;9708;53.114;9.388;2022-10-28T06:24:02;11.40;99.90
19152;DHT22;9708;53.114;9.388;2022-10-28T06:26:29;11.50;99.90
19152;DHT22;9708;53.114;9.388;2022-10-28T06:28:57;11.50;99.90
19152;DHT22;9708;53.114;9.388;2022-10-28T06:31:24;11.50;99.90
19152;DHT22;9708;53.114;9.388;2022-10-28T06:33:50;11.60;99.90
19152;DHT22;9708;53.114;9.388;2022-10-28T06:36:17;11.60;99.90
19152;DHT22;9708;53.114;9.388;2022-10-28T06:38:44;11.60;99.90
19152;DHT22;9708;53.114;9.388;2022-10-28T06:41:11;11.70;99.90
19152;DHT22;9708;53.114;9.388;2022-10-28T06:43:38;11.70;99.90
19152;DHT22;9708;53.114;9.388;2022-10-28T06:46:06;11.80;99.90
19152;DHT22;9708;53.114;9.388;2022-10-28T06:48:33;11.80;99.90
19152;DHT22;9708;53.114;9.388;2022-10-28T06:51:00;11.90;99.90
19152;DHT22;9708;53.114;9.388;2022-10-28T06:53:26;12.00;99.90
19152;DHT22;9708;53.114;9.388;2022-10-28T06:55:54;12.00;99.90
19152;DHT22;9708;53.114;9.388;2022-10-28T06:58:21;12.10;99.90
19152;DHT22;9708;53.114;9.388;2022-10-28T07:00:48;12.20;99.90
19152;DHT22;9708;53.114;9.388;2022-10-28T07:03:16;12.40;99.90
19152;DHT22;9708;53.114;9.388;2022-10-28T07:05:44;12.50;99.90
19152;DHT22;9708;53.114;9.388;2022-10-28T07:08:11;12.60;99.90
19152;DHT22;9708;53.114;9.388;2022-10-28T07:10:39;12.80;99.90
19152;DHT22;9708;53.114;9.388;2022-10-28T07:13:06;12.90;99.90
19152;DHT22;9708;53.114;9.388;2022-10-28T07:15:33;13.00;99.90
19152;DHT22;9708;53.114;9.388;2022-10-28T07:17:59;13.00;99.90
19152;DHT22;9708;53.114;9.388;2022-10-28T07:20:28;13.10;99.90
19152;DHT22;9708;53.114;9.388;2022-10-28T07:22:57;13.20;99.90
19152;DHT22;9708;53.114;9.388;2022-10-28T07:25:25;13.30;99.90
19152;DHT22;9708;53.114;9.388;2022-10-28T07:27:51;13.50;99.90
19152;DHT22;9708;53.114;9.388;2022-10-28T07:30:18;13.60;99.90
19152;DHT22;9708;53.114;9.388;2022-10-28T07:32:45;13.80;99.90
19152;DHT22;9708;53.114;9.388;2022-10-28T07:35:12;13.90;99.90
19152;DHT22;9708;53.114;9.388;2022-10-28T07:37:40;14.10;99.90
19152;DHT22;9708;53.114;9.388;2022-10-28T07:40:07;14.30;99.90
19152;DHT22;9708;53.114;9.388;2022-10-28T07:42:34;14.60;99.90
19152;DHT22;9708;53.114;9.388;2022-10-28T07:45:01;14.70;99.90
19152;DHT22;9708;53.114;9.388;2022-10-28T07:47:28;14.90;99.90
19152;DHT22;9708;53.114;9.388;2022-10-28T07:49:55;15.00;99.90
19152;DHT22;9708;53.114;9.388;2022-10-28T07:52:22;15.20;99.90
19152;DHT22;9708;53.114;9.388;2022-10-28T07:54:50;15.40;99.90
19152;DHT22;9708;53.114;9.388;2022-10-28T07:57:17;15.50;99.90
19152;DHT22;9708;53.114;9.388;2022-10-28T07:59:44;15.70;99.90
19152;DHT22;9708;53.114;9.388;2022-10-28T08:02:14;16.00;99.90
19152;DHT22;9708;53.114;9.388;2022-10-28T08:04:42;16.50;99.90
19152;DHT22;9708;53.114;9.388;2022-10-28T08:07:08;16.80;99.90
19152;DHT22;9708;53.114;9.388;2022-10-28T08:09:35;17.30;99.90
19152;DHT22;9708;53.114;9.388;2022-10-28T08:12:04;17.70;99.90
19152;DHT22;9708;53.114;9.388;2022-10-28T08:14:31;18.00;99.90
19152;DHT22;9708;53.114;9.388;2022-10-28T08:16:57;18.50;99.90
19152;DHT22;9708;53.114;9.388;2022-10-28T08:19:24;18.90;99.90
19152;DHT22;9708;53.114;9.388;2022-10-28T08:21:51;19.30;99.90
19152;DHT22;9708;53.114;9.388;2022-10-28T08:24:18;19.40;99.90
19152;DHT22;9708;53.114;9.388;2022-10-28T08:26:44;19.60;99.90
19152;DHT22;9708;53.114;9.388;2022-10-28T08:29:13;20.00;99.90
19152;DHT22;9708;53.114;9.388;2022-10-28T08:31:39;19.80;99.90
19152;DHT22;9708;53.114;9.388;2022-10-28T08:34:06;19.90;99.90
19152;DHT22;9708;53.114;9.388;2022-10-28T08:36:33;20.10;99.90
19152;DHT22;9708;53.114;9.388;2022-10-28T08:39:00;20.30;99.90
19152;DHT22;9708;53.114;9.388;2022-10-28T08:41:34;20.70;99.90
19152;DHT22;9708;53.114;9.388;2022-10-28T08:44:29;20.70;99.90
19152;DHT22;9708;53.114;9.388;2022-10-28T08:47:07;21.20;99.90
19152;DHT22;9708;53.114;9.388;2022-10-28T08:49:38;21.20;99.90
19152;DHT22;9708;53.114;9.388;2022-10-28T08:52:13;21.00;99.90
19152;DHT22;9708;53.114;9.388;2022-10-28T08:54:45;21.50;99.90
19152;DHT22;9708;53.114;9.388;2022-10-28T08:57:17;21.60;99.90
19152;DHT22;9708;53.114;9.388;2022-10-28T08:59:50;21.70;99.90
19152;DHT22;9708;53.114;9.388;2022-10-28T09:02:20;22.00;99.90
19152;DHT22;9708;53.114;9.388;2022-10-28T09:04:51;22.00;99.90
19152;DHT22;9708;53.114;9.388;2022-10-28T09:07:21;21.80;99.90
19152;DHT22;9708;53.114;9.388;2022-10-28T09:09:50;22.10;99.90
19152;DHT22;9708;53.114;9.388;2022-10-28T09:12:29;22.60;99.90
19152;DHT22;9708;53.114;9.388;2022-10-28T09:15:15;22.70;99.90
19152;DHT22;9708;53.114;9.388;2022-10-28T09:17:51;23.00;99.90
19152;DHT22;9708;53.114;9.388;2022-10-28T09:20:20;23.40;99.90
19152;DHT22;9708;53.114;9.388;2022-10-28T09:22:55;23.50;99.90
19152;DHT22;9708;53.114;9.388;2022-10-28T09:25:26;23.80;99.90
19152;DHT22;9708;53.114;9.388;2022-10-28T09:28:05;23.50;99.90
19152;DHT22;9708;53.114;9.388;2022-10-28T09:30:44;23.70;99.90
19152;DHT22;9708;53.114;9.388;2022-10-28T09:33:25;23.60;99.90
19152;DHT22;9708;53.114;9.388;2022-10-28T09:36:00;23.60;99.90
19152;DHT22;9708;53.114;9.388;2022-10-28T09:38:29;23.70;99.90
19152;DHT22;9708;53.114;9.388;2022-10-28T09:41:01;23.70;99.90
19152;DHT22;9708;53.114;9.388;2022-10-28T09:43:31;23.60;99.90
19152;DHT22;9708;53.114;9.388;2022-10-28T09:46:05;23.40;99.90
19152;DHT22;9708;53.114;9.388;2022-10-28T09:48:35;24.00;99.90
19152;DHT22;9708;53.114;9.388;2022-10-28T09:51:03;24.50;99.90
19152;DHT22;9708;53.114;9.388;2022-10-28T09:53:38;24.50;99.90
19152;DHT22;9708;53.114;9.388;2022-10-28T09:56:05;25.30;99.90
19152;DHT22;9708;53.114;9.388;2022-10-28T09:58:33;25.70;99.90
19152;DHT22;9708;53.114;9.388;2022-10-28T10:01:01;25.80;99.90
19152;DHT22;9708;53.114;9.388;2022-10-28T10:03:29;25.70;99.90
19152;DHT22;9708;53.114;9.388;2022-10-28T10:06:00;25.50;99.90
19152;DHT22;9708;53.114;9.388;2022-10-28T10:08:29;25.40;99.90
19152;DHT22;9708;53.114;9.388;2022-10-28T10:11:00;25.80;99.90
19152;DHT22;9708;53.114;9.388;2022-10-28T10:13:33;26.40;99.90
19152;DHT22;9708;53.114;9.388;2022-10-28T10:16:05;26.70;99.90
19152;DHT22;9708;53.114;9.388;2022-10-28T10:18:37;26.10;99.90
19152;DHT22;9708;53.114;9.388;2022-10-28T10:21:06;25.90;99.90
19152;DHT22;9708;53.114;9.388;2022-10-28T10:23:34;26.00;99.90
19152;DHT22;9708;53.114;9.388;2022-10-28T10:26:03;25.60;99.90
19152;DHT22;9708;53.114;9.388;2022-10-28T10:28:32;25.80;99.90
19152;DHT22;9708;53.114;9.388;2022-10-28T10:31:04;26.50;99.90
19152;DHT22;9708;53.114;9.388;2022-10-28T10:33:34;27.00;99.90
19152;DHT22;9708;53.114;9.388;2022-10-28T10:36:03;26.70;99.90
19152;DHT22;9708;53.114;9.388;2022-10-28T10:38:45;26.30;99.90
19152;DHT22;9708;53.114;9.388;2022-10-28T10:41:31;26.50;99.90
19152;DHT22;9708;53.114;9.388;2022-10-28T10:43:58;26.40;99.90
19152;DHT22;9708;53.114;9.388;2022-10-28T10:46:26;26.90;99.90
19152;DHT22;9708;53.114;9.388;2022-10-28T10:49:06;26.90;99.90
19152;DHT22;9708;53.114;9.388;2022-10-28T10:51:38;26.90;99.90
19152;DHT22;9708;53.114;9.388;2022-10-28T10:54:13;27.00;99.90
19152;DHT22;9708;53.114;9.388;2022-10-28T10:56:41;27.00;99.90
19152;DHT22;9708;53.114;9.388;2022-10-28T10:59:17;27.20;99.90
19152;DHT22;9708;53.114;9.388;2022-10-28T11:01:47;26.50;99.90
19152;DHT22;9708;53.114;9.388;2022-10-28T11:04:15;26.10;99.90
19152;DHT22;9708;53.114;9.388;2022-10-28T11:06:43;26.50;99.90
19152;DHT22;9708;53.114;9.388;2022-10-28T11:09:19;26.10;99.90
19152;DHT22;9708;53.114;9.388;2022-10-28T11:11:47;25.70;99.90
19152;DHT22;9708;53.114;9.388;2022-10-28T11:14:21;25.80;99.90
19152;DHT22;9708;53.114;9.388;2022-10-28T11:16:52;25.60;99.90
19152;DHT22;9708;53.114;9.388;2022-10-28T11:19:21;25.60;99.90
19152;DHT22;9708;53.114;9.388;2022-10-28T11:22:05;25.30;99.90
19152;DHT22;9708;53.114;9.388;2022-10-28T11:24:45;25.20;99.90
19152;DHT22;9708;53.114;9.388;2022-10-28T11:27:26;25.30;99.90
19152;DHT22;9708;53.114;9.388;2022-10-28T11:29:57;25.60;99.90
19152;DHT22;9708;53.114;9.388;2022-10-28T11:32:38;25.70;99.90
19152;DHT22;9708;53.114;9.388;2022-10-28T11:35:27;25.40;99.90
19152;DHT22;9708;53.114;9.388;2022-10-28T11:38:05;24.80;99.90
19152;DHT22;9708;53.114;9.388;2022-10-28T11:40:41;24.70;99.90
19152;DHT22;9708;53.114;9.388;2022-10-28T11:43:18;25.00;99.90
19152;DHT22;9708;53.114;9.388;2022-10-28T11:45:55;25.50;99.90
19152;DHT22;9708;53.114;9.388;2022-10-28T11:48:41;26.30;99.90
19152;DHT22;9708;53.114;9.388;2022-10-28T11:51:18;26.30;99.90
19152;DHT22;9708;53.114;9.388;2022-10-28T11:54:14;26.40;99.90
19152;DHT22;9708;53.114;9.388;2022-10-28T11:56:47;27.20;99.90
19152;DHT22;9708;53.114;9.388;2022-10-28T11:59:33;27.30;99.90
19152;DHT22;9708;53.114;9.388;2022-10-28T12:02:15;26.70;99.90
19152;DHT22;9708;53.114;9.388;2022-10-28T12:04:57;26.50;99.90
19152;DHT22;9708;53.114;9.388;2022-10-28T12:10:34;26.30;99.90
19152;DHT22;9708;53.114;9.388;2022-10-28T12:13:13;25.80;99.90
19152;DHT22;9708;53.114;9.388;2022-10-28T12:15:49;25.70;99.90
19152;DHT22;9708;53.114;9.388;2022-10-28T12:18:22;25.70;99.90
19152;DHT22;9708;53.114;9.388;2022-10-28T12:20:58;26.00;99.90
19152;DHT22;9708;53.114;9.388;2022-10-28T12:23:28;25.90;99.90
19152;DHT22;9708;53.114;9.388;2022-10-28T12:25:58;25.80;99.90
19152;DHT22;9708;53.114;9.388;2022-10-28T12:28:31;25.60;99.90
19152;DHT22;9708;53.114;9.388;2022-10-28T12:30:59;25.00;99.90
19152;DHT22;9708;53.114;9.388;2022-10-28T12:33:31;24.80;99.90
19152;DHT22;9708;53.114;9.388;2022-10-28T12:36:18;24.80;99.90
19152;DHT22;9708;53.114;9.388;2022-10-28T12:38:52;24.40;99.90
19152;DHT22;9708;53.114;9.388;2022-10-28T12:41:23;24.40;99.90
19152;DHT22;9708;53.114;9.388;2022-10-28T12:43:54;24.30;99.90
19152;DHT22;9708;53.114;9.388;2022-10-28T12:46:29;24.20;99.90
19152;DHT22;9708;53.114;9.388;2022-10-28T12:49:02;24.00;99.90
19152;DHT22;9708;53.114;9.388;2022-10-28T12:51:35;23.80;99.90
19152;DHT22;9708;53.114;9.388;2022-10-28T12:54:13;23.70;99.90
19152;DHT22;9708;53.114;9.388;2022-10-28T12:56:47;23.70;99.90
19152;DHT22;9708;53.114;9.388;2022-10-28T12:59:21;23.70;99.90
19152;DHT22;9708;53.114;9.388;2022-10-28T13:01:50;23.70;99.90
19152;DHT22;9708;53.114;9.388;2022-10-28T13:04:17;23.60;99.90
19152;DHT22;9708;53.114;9.388;2022-10-28T13:07:03;23.50;99.90
19152;DHT22;9708;53.114;9.388;2022-10-28T13:09:48;23.40;99.90
19152;DHT22;9708;53.114;9.388;2022-10-28T13:12:37;23.20;99.90
19152;DHT22;9708;53.114;9.388;2022-10-28T13:15:23;23.20;99.90
19152;DHT22;9708;53.114;9.388;2022-10-28T13:18:06;23.20;99.90
19152;DHT22;9708;53.114;9.388;2022-10-28T13:20:43;23.10;99.90
19152;DHT22;9708;53.114;9.388;2022-10-28T13:23:23;23.00;99.90
19152;DHT22;9708;53.114;9.388;2022-10-28T13:25:58;22.90;99.90
19152;DHT22;9708;53.114;9.388;2022-10-28T13:28:32;22.80;99.90
19152;DHT22;9708;53.114;9.388;2022-10-28T13:31:01;22.80;99.90
19152;DHT22;9708;53.114;9.388;2022-10-28T13:33:30;22.80;99.90
19152;DHT22;9708;53.114;9.388;2022-10-28T13:36:16;22.60;99.90
19152;DHT22;9708;53.114;9.388;2022-10-28T13:38:50;22.70;99.90
19152;DHT22;9708;53.114;9.388;2022-10-28T13:41:33;22.70;99.90
19152;DHT22;9708;53.114;9.388;2022-10-28T13:44:25;22.60;99.90
19152;DHT22;9708;53.114;9.388;2022-10-28T13:47:03;22.60;99.90
19152;DHT22;9708;53.114;9.388;2022-10-28T13:49:31;22.50;99.90
19152;DHT22;9708;53.114;9.388;2022-10-28T13:52:00;22.40;99.90
19152;DHT22;9708;53.114;9.388;2022-10-28T13:54:30;22.30;99.90
19152;DHT22;9708;53.114;9.388;2022-10-28T13:57:03;22.20;99.90
19152;DHT22;9708;53.114;9.388;2022-10-28T13:59:45;22.20;99.90
19152;DHT22;9708;53.114;9.388;2022-10-28T14:02:21;22.10;99.90
19152;DHT22;9708;53.114;9.388;2022-10-28T14:04:54;22.00;99.90
19152;DHT22;9708;53.114;9.388;2022-10-28T14:07:23;22.00;99.90
19152;DHT22;9708;53.114;9.388;2022-10-28T14:09:56;22.00;99.90
19152;DHT22;9708;53.114;9.388;2022-10-28T14:12:26;21.90;99.90
19152;DHT22;9708;53.114;9.388;2022-10-28T14:14:59;21.90;99.90
19152;DHT22;9708;53.114;9.388;2022-10-28T14:17:33;21.90;99.90
19152;DHT22;9708;53.114;9.388;2022-10-28T14:20:03;21.90;99.90
19152;DHT22;9708;53.114;9.388;2022-10-28T14:22:32;21.80;99.90
19152;DHT22;9708;53.114;9.388;2022-10-28T14:25:01;21.90;99.90
19152;DHT22;9708;53.114;9.388;2022-10-28T14:27:38;21.80;99.90
19152;DHT22;9708;53.114;9.388;2022-10-28T14:30:19;21.70;99.90
19152;DHT22;9708;53.114;9.388;2022-10-28T14:32:56;21.70;99.90
19152;DHT22;9708;53.114;9.388;2022-10-28T14:35:29;21.60;99.90
19152;DHT22;9708;53.114;9.388;2022-10-28T14:38:13;21.50;99.90
19152;DHT22;9708;53.114;9.388;2022-10-28T14:40:48;21.50;99.90
19152;DHT22;9708;53.114;9.388;2022-10-28T14:43:25;21.40;99.90
19152;DHT22;9708;53.114;9.388;2022-10-28T14:46:02;21.30;99.90
19152;DHT22;9708;53.114;9.388;2022-10-28T14:48:49;21.30;99.90
19152;DHT22;9708;53.114;9.388;2022-10-28T14:51:18;21.30;99.90
19152;DHT22;9708;53.114;9.388;2022-10-28T14:53:46;21.30;99.90
19152;DHT22;9708;53.114;9.388;2022-10-28T14:56:20;21.20;99.90
19152;DHT22;9708;53.114;9.388;2022-10-28T14:58:48;21.10;99.90
19152;DHT22;9708;53.114;9.388;2022-10-28T15:01:26;21.20;99.90
19152;DHT22;9708;53.114;9.388;2022-10-28T15:03:57;21.40;99.90
19152;DHT22;9708;53.114;9.388;2022-10-28T15:06:33;21.20;99.90
19152;DHT22;9708;53.114;9.388;2022-10-28T15:09:04;21.00;99.90
19152;DHT22;9708;53.114;9.388;2022-10-28T15:11:33;21.00;99.90
19152;DHT22;9708;53.114;9.388;2022-10-28T15:14:20;21.00;99.90
19152;DHT22;9708;53.114;9.388;2022-10-28T15:16:49;20.90;99.90
19152;DHT22;9708;53.114;9.388;2022-10-28T15:19:18;20.90;99.90
19152;DHT22;9708;53.114;9.388;2022-10-28T15:21:59;20.80;99.90
19152;DHT22;9708;53.114;9.388;2022-10-28T15:24:26;20.80;99.90
19152;DHT22;9708;53.114;9.388;2022-10-28T15:26:54;20.70;99.90
19152;DHT22;9708;53.114;9.388;2022-10-28T15:29:21;20.70;99.90
19152;DHT22;9708;53.114;9.388;2022-10-28T15:32:12;20.70;99.90
19152;DHT22;9708;53.114;9.388;2022-10-28T15:34:41;20.60;99.90
19152;DHT22;9708;53.114;9.388;2022-10-28T15:37:08;20.50;99.90
19152;DHT22;9708;53.114;9.388;2022-10-28T15:39:35;20.50;99.90
19152;DHT22;9708;53.114;9.388;2022-10-28T15:42:28;20.50;99.90
19152;DHT22;9708;53.114;9.388;2022-10-28T15:44:56;20.50;99.90
19152;DHT22;9708;53.114;9.388;2022-10-28T15:47:27;20.30;99.90
19152;DHT22;9708;53.114;9.388;2022-10-28T15:50:03;20.20;99.90
19152;DHT22;9708;53.114;9.388;2022-10-28T15:52:40;20.00;99.90
19152;DHT22;9708;53.114;9.388;2022-10-28T15:55:29;19.90;99.90
19152;DHT22;9708;53.114;9.388;2022-10-28T15:58:01;19.90;99.90
19152;DHT22;9708;53.114;9.388;2022-10-28T16:00:29;19.90;99.90
19152;DHT22;9708;53.114;9.388;2022-10-28T16:02:58;19.80;99.90
19152;DHT22;9708;53.114;9.388;2022-10-28T16:05:52;19.70;99.90
19152;DHT22;9708;53.114;9.388;2022-10-28T16:08:22;19.70;99.90
19152;DHT22;9708;53.114;9.388;2022-10-28T16:10:53;19.60;99.90
19152;DHT22;9708;53.114;9.388;2022-10-28T16:13:28;19.60;99.90
19152;DHT22;9708;53.114;9.388;2022-10-28T16:15:58;19.50;99.90
19152;DHT22;9708;53.114;9.388;2022-10-28T16:18:30;19.60;99.90